createdAt,value
2019-03-20T00:09:53.293Z,81.33
2019-03-20T00:24:58.339Z,79.62
2019-03-20T00:40:01.190Z,78.58
2019-03-20T00:55:05.773Z,78.39
2019-03-20T01:10:14.378Z,78.37
2019-03-20T01:25:18.819Z,79.68
2019-03-20T01:40:22.319Z,80.74
2019-03-20T01:55:26.209Z,80.83
2019-03-20T02:10:28.874Z,81.95
2019-03-20T02:25:32.800Z,81.78
2019-03-20T02:40:35.577Z,82.21
2019-03-20T02:55:39.473Z,83.20
2019-03-20T03:10:42.028Z,83.72
2019-03-20T03:25:44.648Z,84.43
2019-03-20T03:40:47.228Z,84.77
2019-03-20T03:55:49.796Z,86.02
2019-03-20T04:10:53.442Z,87.44
2019-03-20T04:25:57.055Z,86.75
2019-03-20T04:40:59.611Z,87.94
2019-03-20T04:56:02.163Z,84.14
2019-03-20T05:11:05.510Z,76.78
2019-03-20T05:26:08.070Z,70.28
2019-03-20T05:41:11.887Z,64.02
2019-03-20T05:56:15.257Z,56.03
2019-03-20T06:11:17.843Z,52.70
2019-03-20T06:26:20.516Z,46.51
2019-03-20T06:41:24.563Z,44.81
2019-03-20T06:56:27.126Z,41.69
2019-03-20T07:11:31.485Z,38.13
2019-03-20T07:26:34.037Z,34.02
2019-03-20T07:41:36.824Z,33.98
2019-03-20T07:56:40.176Z,31.98
2019-03-20T08:11:42.759Z,32.16
2019-03-20T08:26:45.435Z,30.40
2019-03-20T08:41:47.997Z,30.10
2019-03-20T08:56:51.770Z,34.71
2019-03-20T09:11:54.461Z,32.81
2019-03-20T09:26:57.047Z,37.20
2019-03-20T09:42:03.503Z,41.14
2019-03-20T09:57:06.062Z,40.02
2019-03-20T10:12:08.633Z,38.57
2019-03-20T10:27:11.200Z,42.22
2019-03-20T10:42:14.041Z,39.00
2019-03-20T10:57:16.618Z,39.83
2019-03-20T11:12:19.405Z,42.64
2019-03-20T11:27:22.148Z,41.75
2019-03-20T11:42:24.717Z,42.49
2019-03-20T11:57:28.252Z,41.51
2019-03-20T12:12:30.815Z,41.18
2019-03-20T12:27:33.372Z,40.86
2019-03-20T12:42:36.045Z,39.54
2019-03-20T12:57:38.611Z,44.97
2019-03-20T13:12:42.073Z,44.35
2019-03-20T13:27:47.815Z,46.87
2019-03-20T13:42:50.389Z,48.41
2019-03-20T13:57:52.974Z,48.45
2019-03-20T14:12:56.320Z,49.23
2019-03-20T14:27:59.697Z,49.38
2019-03-20T14:43:02.318Z,50.97
2019-03-20T14:58:05.078Z,52.36
2019-03-20T15:13:09.041Z,53.78
2019-03-20T15:28:12.091Z,54.66
2019-03-20T15:43:16.791Z,57.46
2019-03-20T15:58:19.378Z,59.77
2019-03-20T16:13:21.941Z,61.36
2019-03-20T16:28:25.760Z,63.18
2019-03-20T16:43:29.633Z,65.61
2019-03-20T16:58:33.575Z,67.70
2019-03-20T17:13:36.353Z,69.72
2019-03-20T17:28:39.190Z,70.31
2019-03-20T17:43:41.771Z,72.52
2019-03-20T17:58:46.001Z,75.04
2019-03-20T18:13:49.810Z,77.41
2019-03-20T18:28:52.420Z,79.52
2019-03-20T18:43:56.120Z,80.57
2019-03-20T18:58:59.265Z,80.01
2019-03-20T19:14:02.146Z,79.97
2019-03-20T19:29:04.714Z,80.28
2019-03-20T19:44:07.873Z,80.57
2019-03-20T19:59:10.506Z,78.97
2019-03-20T20:14:13.838Z,77.13
2019-03-20T20:29:16.404Z,75.58
2019-03-20T20:44:20.620Z,76.18
2019-03-20T20:59:23.205Z,75.52
2019-03-20T21:14:25.758Z,76.97
2019-03-20T21:29:36.368Z,78.32
2019-03-20T21:44:48.356Z,78.93
2019-03-20T22:00:10.876Z,79.31
2019-03-20T22:15:24.609Z,79.87
2019-03-20T22:30:27.175Z,80.42
2019-03-20T23:01:14.829Z,81.26
2019-03-20T23:16:20.377Z,81.30
2019-03-20T23:31:23.458Z,82.08
2019-03-20T23:46:27.049Z,83.54
